BHS3262 MYGF-MYNN
Flight info
| Callsign | BHS3262 |
|---|---|
| Flight time | 0h 29m |
| Altitude | 13000 |
| Route | DCT ZFP BR65V ZQA DCT |
| Aircraft | DH8C/M-SDFGR/S |
Departure
| Time | 2026-04-22 02:09 |
|---|---|
| Airport | Grand Bahama International Airport (MYGF) |
Arrival
| Time | 2026-04-22 02:39 |
|---|---|
| Airport | Lynden Pindling International Airport (MYNN) |
| Time | Latitude | Longitude | Altitude | Speed | Heading |
|---|---|---|---|---|---|
| 2026-04-22 01:53 | 26.54860 | -78.69638 | 12 ft | 0 kts | 276° |
| 2026-04-22 02:01 | 26.54863 | -78.69643 | 12 ft | 2 kts | 329° |
| 2026-04-22 02:01 | 26.54903 | -78.69659 | 12 ft | 8 kts | 314° |
| 2026-04-22 02:01 | 26.54910 | -78.69746 | 12 ft | 14 kts | 269° |
| 2026-04-22 02:01 | 26.54914 | -78.69872 | 12 ft | 18 kts | 272° |
| 2026-04-22 02:02 | 26.54918 | -78.70031 | 12 ft | 20 kts | 271° |
| 2026-04-22 02:02 | 26.54921 | -78.70167 | 12 ft | 16 kts | 271° |
| 2026-04-22 02:02 | 26.54959 | -78.70290 | 12 ft | 18 kts | 292° |
| 2026-04-22 02:02 | 26.54968 | -78.70388 | 12 ft | 20 kts | 271° |
| 2026-04-22 02:03 | 26.54975 | -78.70611 | 12 ft | 22 kts | 272° |
| 2026-04-22 02:03 | 26.54981 | -78.70793 | 12 ft | 24 kts | 271° |
| 2026-04-22 02:03 | 26.54989 | -78.70970 | 12 ft | 17 kts | 286° |
| 2026-04-22 02:03 | 26.55045 | -78.71004 | 12 ft | 0 kts | 3° |
| 2026-04-22 02:04 | 26.55044 | -78.71004 | 12 ft | 0 kts | 3° |
| 2026-04-22 02:08 | 26.55046 | -78.71004 | 12 ft | 2 kts | 3° |
| 2026-04-22 02:08 | 26.55085 | -78.71002 | 12 ft | 8 kts | 4° |
| 2026-04-22 02:08 | 26.55154 | -78.70984 | 12 ft | 12 kts | 47° |
| 2026-04-22 02:09 | 26.55223 | -78.70850 | 12 ft | 48 kts | 61° |
| 2026-04-22 02:09 | 26.55518 | -78.70259 | 13 ft | 119 kts | 62° |
| 2026-04-22 02:09 | 26.55951 | -78.69366 | 293 ft | 142 kts | 63° |
| 2026-04-22 02:09 | 26.56328 | -78.68291 | 754 ft | 158 kts | 82° |
| 2026-04-22 02:10 | 26.56237 | -78.67451 | 908 ft | 172 kts | 111° |
| 2026-04-22 02:10 | 26.55136 | -78.66141 | 1477 ft | 180 kts | 139° |
| 2026-04-22 02:10 | 26.54116 | -78.65292 | 1887 ft | 185 kts | 142° |
| 2026-04-22 02:10 | 26.53037 | -78.64466 | 2304 ft | 194 kts | 143° |
| 2026-04-22 02:11 | 26.51887 | -78.63602 | 2728 ft | 204 kts | 144° |
| 2026-04-22 02:11 | 26.50691 | -78.62708 | 3145 ft | 212 kts | 144° |
| 2026-04-22 02:11 | 26.49442 | -78.61772 | 3561 ft | 220 kts | 144° |
| 2026-04-22 02:11 | 26.48158 | -78.60809 | 3973 ft | 226 kts | 144° |
| 2026-04-22 02:12 | 26.46840 | -78.59822 | 4382 ft | 232 kts | 144° |
| 2026-04-22 02:12 | 26.45498 | -78.58817 | 4788 ft | 237 kts | 145° |
| 2026-04-22 02:12 | 26.44105 | -78.57773 | 5200 ft | 241 kts | 145° |
| 2026-04-22 02:12 | 26.42720 | -78.56736 | 5602 ft | 245 kts | 145° |
| 2026-04-22 02:13 | 26.41279 | -78.55658 | 6011 ft | 249 kts | 145° |
| 2026-04-22 02:13 | 26.40333 | -78.54950 | 6277 ft | 251 kts | 145° |
| 2026-04-22 02:13 | 26.38386 | -78.53493 | 6818 ft | 254 kts | 146° |
| 2026-04-22 02:13 | 26.36910 | -78.52389 | 7222 ft | 257 kts | 146° |
| 2026-04-22 02:14 | 26.35440 | -78.51290 | 7621 ft | 259 kts | 146° |
| 2026-04-22 02:14 | 26.33923 | -78.50156 | 8029 ft | 261 kts | 146° |
| 2026-04-22 02:14 | 26.32418 | -78.49032 | 8431 ft | 262 kts | 146° |
| 2026-04-22 02:14 | 26.30901 | -78.47899 | 8834 ft | 264 kts | 146° |
| 2026-04-22 02:15 | 26.29390 | -78.46770 | 9233 ft | 265 kts | 147° |
| 2026-04-22 02:15 | 26.27863 | -78.45631 | 9634 ft | 266 kts | 147° |
| 2026-04-22 02:15 | 26.26318 | -78.44473 | 10050 ft | 266 kts | 147° |
| 2026-04-22 02:15 | 26.24778 | -78.43326 | 10449 ft | 266 kts | 148° |
| 2026-04-22 02:16 | 26.23255 | -78.42194 | 10843 ft | 267 kts | 147° |
| 2026-04-22 02:16 | 26.21697 | -78.41033 | 11247 ft | 267 kts | 147° |
| 2026-04-22 02:16 | 26.20684 | -78.40279 | 11509 ft | 268 kts | 147° |
| 2026-04-22 02:16 | 26.19134 | -78.39123 | 11909 ft | 269 kts | 147° |
| 2026-04-22 02:17 | 26.17049 | -78.37570 | 12446 ft | 270 kts | 147° |
| 2026-04-22 02:17 | 26.15496 | -78.36414 | 12845 ft | 271 kts | 147° |
| 2026-04-22 02:17 | 26.13895 | -78.35225 | 13034 ft | 281 kts | 148° |
| 2026-04-22 02:17 | 26.12274 | -78.33966 | 13038 ft | 294 kts | 146° |
| 2026-04-22 02:18 | 26.11159 | -78.33062 | 13033 ft | 297 kts | 145° |
| 2026-04-22 02:18 | 26.08923 | -78.31229 | 13032 ft | 303 kts | 145° |
| 2026-04-22 02:18 | 26.07231 | -78.29838 | 13030 ft | 307 kts | 145° |
| 2026-04-22 02:18 | 26.05501 | -78.28414 | 13029 ft | 310 kts | 145° |
| 2026-04-22 02:19 | 26.03775 | -78.26994 | 13028 ft | 312 kts | 145° |
| 2026-04-22 02:19 | 26.02017 | -78.25549 | 13028 ft | 314 kts | 145° |
| 2026-04-22 02:19 | 26.00860 | -78.24598 | 13028 ft | 315 kts | 145° |
| 2026-04-22 02:19 | 25.98506 | -78.22664 | 13027 ft | 316 kts | 145° |
| 2026-04-22 02:20 | 25.97318 | -78.21688 | 13027 ft | 316 kts | 145° |
| 2026-04-22 02:20 | 25.94969 | -78.19760 | 13027 ft | 317 kts | 145° |
| 2026-04-22 02:20 | 25.93188 | -78.18298 | 13027 ft | 317 kts | 145° |
| 2026-04-22 02:20 | 25.92020 | -78.17340 | 13027 ft | 318 kts | 145° |
| 2026-04-22 02:21 | 25.90235 | -78.15877 | 13026 ft | 318 kts | 145° |
| 2026-04-22 02:21 | 25.88560 | -78.14503 | 13025 ft | 318 kts | 145° |
| 2026-04-22 02:21 | 25.86297 | -78.12650 | 13022 ft | 318 kts | 145° |
| 2026-04-22 02:21 | 25.84524 | -78.11196 | 13019 ft | 319 kts | 145° |
| 2026-04-22 02:22 | 25.82738 | -78.09734 | 13016 ft | 319 kts | 145° |
| 2026-04-22 02:22 | 25.81529 | -78.08745 | 13014 ft | 319 kts | 145° |
| 2026-04-22 02:22 | 25.79755 | -78.07293 | 13010 ft | 319 kts | 145° |
| 2026-04-22 02:22 | 25.77974 | -78.05836 | 13005 ft | 319 kts | 145° |
| 2026-04-22 02:23 | 25.76195 | -78.04382 | 13000 ft | 319 kts | 145° |
| 2026-04-22 02:23 | 25.73794 | -78.02420 | 12995 ft | 320 kts | 145° |
| 2026-04-22 02:23 | 25.72008 | -78.00961 | 12993 ft | 320 kts | 145° |
| 2026-04-22 02:23 | 25.70213 | -77.99496 | 12991 ft | 320 kts | 145° |
| 2026-04-22 02:24 | 25.68429 | -77.98039 | 12990 ft | 320 kts | 145° |
| 2026-04-22 02:24 | 25.66628 | -77.96570 | 12990 ft | 320 kts | 145° |
| 2026-04-22 02:24 | 25.65443 | -77.95603 | 12990 ft | 320 kts | 145° |
| 2026-04-22 02:24 | 25.63659 | -77.94148 | 12990 ft | 320 kts | 145° |
| 2026-04-22 02:25 | 25.61873 | -77.92692 | 12990 ft | 320 kts | 145° |
| 2026-04-22 02:25 | 25.59485 | -77.90747 | 12990 ft | 320 kts | 145° |
| 2026-04-22 02:25 | 25.58278 | -77.89764 | 12990 ft | 320 kts | 145° |
| 2026-04-22 02:25 | 25.55841 | -77.87918 | 12991 ft | 319 kts | 148° |
| 2026-04-22 02:26 | 25.53980 | -77.86598 | 12990 ft | 319 kts | 149° |
| 2026-04-22 02:26 | 25.52720 | -77.85731 | 12883 ft | 322 kts | 149° |
| 2026-04-22 02:26 | 25.50826 | -77.84440 | 12534 ft | 314 kts | 150° |
| 2026-04-22 02:26 | 25.48979 | -77.83186 | 12128 ft | 311 kts | 149° |
| 2026-04-22 02:27 | 25.46568 | -77.81554 | 11597 ft | 306 kts | 149° |
| 2026-04-22 02:27 | 25.45362 | -77.80738 | 11329 ft | 305 kts | 149° |
| 2026-04-22 02:27 | 25.42948 | -77.79105 | 10790 ft | 302 kts | 149° |
| 2026-04-22 02:27 | 25.41166 | -77.77898 | 10391 ft | 301 kts | 149° |
| 2026-04-22 02:28 | 25.39990 | -77.77103 | 10126 ft | 300 kts | 149° |
| 2026-04-22 02:28 | 25.38218 | -77.75906 | 9727 ft | 299 kts | 149° |
| 2026-04-22 02:28 | 25.35869 | -77.74319 | 9196 ft | 298 kts | 149° |
| 2026-04-22 02:28 | 25.34089 | -77.73118 | 8792 ft | 297 kts | 149° |
| 2026-04-22 02:29 | 25.32923 | -77.72331 | 8528 ft | 296 kts | 149° |
| 2026-04-22 02:29 | 25.30602 | -77.70766 | 7999 ft | 295 kts | 149° |
| 2026-04-22 02:29 | 25.28860 | -77.69591 | 7602 ft | 294 kts | 149° |
| 2026-04-22 02:29 | 25.27113 | -77.68413 | 7202 ft | 293 kts | 148° |
| 2026-04-22 02:30 | 25.25956 | -77.67634 | 6937 ft | 293 kts | 148° |
| 2026-04-22 02:30 | 25.24228 | -77.66470 | 6540 ft | 292 kts | 148° |
| 2026-04-22 02:30 | 25.22501 | -77.65306 | 6243 ft | 287 kts | 148° |
| 2026-04-22 02:30 | 25.20794 | -77.64157 | 5963 ft | 283 kts | 148° |
| 2026-04-22 02:31 | 25.18728 | -77.62449 | 5588 ft | 279 kts | 142° |
| 2026-04-22 02:31 | 25.17297 | -77.61061 | 5492 ft | 268 kts | 134° |
| 2026-04-22 02:31 | 25.16429 | -77.60110 | 5491 ft | 261 kts | 133° |
| 2026-04-22 02:31 | 25.14764 | -77.58250 | 5491 ft | 249 kts | 133° |
| 2026-04-22 02:32 | 25.13571 | -77.56914 | 5453 ft | 242 kts | 133° |
| 2026-04-22 02:32 | 25.12775 | -77.56026 | 5210 ft | 236 kts | 133° |
| 2026-04-22 02:32 | 25.11271 | -77.54364 | 4726 ft | 225 kts | 133° |
| 2026-04-22 02:32 | 25.10249 | -77.53110 | 4343 ft | 217 kts | 117° |
| 2026-04-22 02:33 | 25.09996 | -77.52077 | 4076 ft | 209 kts | 87° |
| 2026-04-22 02:33 | 25.10453 | -77.50637 | 3732 ft | 197 kts | 55° |
| 2026-04-22 02:33 | 25.11287 | -77.49451 | 3382 ft | 192 kts | 47° |
| 2026-04-22 02:33 | 25.12459 | -77.48029 | 2903 ft | 187 kts | 38° |
| 2026-04-22 02:34 | 25.13241 | -77.47653 | 2634 ft | 188 kts | 8° |
| 2026-04-22 02:34 | 25.14452 | -77.48048 | 2361 ft | 187 kts | 324° |
| 2026-04-22 02:34 | 25.15245 | -77.49156 | 2184 ft | 181 kts | 306° |
| 2026-04-22 02:34 | 25.15653 | -77.50454 | 1941 ft | 184 kts | 271° |
| 2026-04-22 02:35 | 25.15169 | -77.51743 | 1760 ft | 186 kts | 226° |
| 2026-04-22 02:35 | 25.14127 | -77.52552 | 1609 ft | 185 kts | 208° |
| 2026-04-22 02:35 | 25.12693 | -77.53458 | 1483 ft | 171 kts | 208° |
| 2026-04-22 02:35 | 25.11707 | -77.54015 | 1484 ft | 146 kts | 192° |
| 2026-04-22 02:36 | 25.10817 | -77.53928 | 1443 ft | 112 kts | 146° |
| 2026-04-22 02:36 | 25.10446 | -77.53632 | 1414 ft | 93 kts | 126° |
| 2026-04-22 02:36 | 25.09831 | -77.52924 | 1146 ft | 96 kts | 126° |
| 2026-04-22 02:36 | 25.09518 | -77.52554 | 1045 ft | 99 kts | 126° |
| 2026-04-22 02:37 | 25.09033 | -77.51987 | 925 ft | 105 kts | 127° |
| 2026-04-22 02:37 | 25.08504 | -77.51379 | 828 ft | 109 kts | 128° |
| 2026-04-22 02:37 | 25.07971 | -77.50790 | 777 ft | 108 kts | 128° |
| 2026-04-22 02:37 | 25.07243 | -77.50005 | 667 ft | 109 kts | 128° |
| 2026-04-22 02:38 | 25.06755 | -77.49392 | 485 ft | 105 kts | 124° |
| 2026-04-22 02:38 | 25.06430 | -77.48989 | 337 ft | 106 kts | 126° |
| 2026-04-22 02:38 | 25.05917 | -77.48408 | 169 ft | 105 kts | 129° |
| 2026-04-22 02:38 | 25.05416 | -77.47840 | 78 ft | 102 kts | 128° |
| 2026-04-22 02:39 | 25.04919 | -77.47282 | 30 ft | 103 kts | 130° |
| 2026-04-22 02:39 | 25.04438 | -77.46742 | 25 ft | 81 kts | 132° |
| 2026-04-22 02:39 | 25.04160 | -77.46391 | 24 ft | 38 kts | 116° |
| 2026-04-22 02:39 | 25.04105 | -77.46215 | 24 ft | 10 kts | 81° |
| 2026-04-22 02:40 | 25.04152 | -77.46178 | 24 ft | 9 kts | 351° |
| 2026-04-22 02:40 | 25.04216 | -77.46238 | 24 ft | 14 kts | 315° |
| 2026-04-22 02:40 | 25.04298 | -77.46327 | 24 ft | 18 kts | 313° |
| 2026-04-22 02:40 | 25.04397 | -77.46435 | 25 ft | 21 kts | 315° |
| 2026-04-22 02:41 | 25.04509 | -77.46561 | 25 ft | 24 kts | 315° |
| 2026-04-22 02:41 | 25.04656 | -77.46722 | 25 ft | 15 kts | 322° |
| 2026-04-22 02:41 | 25.04707 | -77.46734 | 25 ft | 8 kts | 24° |
| 2026-04-22 02:41 | 25.04730 | -77.46715 | 25 ft | 2 kts | 45° |
| 2026-04-22 02:42 | 25.04744 | -77.46699 | 25 ft | 5 kts | 44° |
| 2026-04-22 02:42 | 25.04780 | -77.46661 | 25 ft | 8 kts | 43° |
| 2026-04-22 02:42 | 25.04811 | -77.46598 | 25 ft | 10 kts | 97° |
| 2026-04-22 02:42 | 25.04816 | -77.46549 | 26 ft | 5 kts | 93° |
| 2026-04-22 02:43 | 25.04794 | -77.46536 | 26 ft | 0 kts | 179° |